createdAt,value
2017-10-06T00:00:53.255Z,93.00
2017-10-06T00:03:20.853Z,93.00
2017-10-06T00:05:48.337Z,93.00
2017-10-06T00:08:15.847Z,93.10
2017-10-06T00:10:44.393Z,93.40
2017-10-06T00:13:11.888Z,93.40
2017-10-06T00:15:40.147Z,93.50
2017-10-06T00:18:07.779Z,93.50
2017-10-06T00:20:35.282Z,93.70
2017-10-06T00:23:02.855Z,93.70
2017-10-06T00:25:30.487Z,93.80
2017-10-06T00:27:57.946Z,93.60
2017-10-06T00:30:26.550Z,93.80
2017-10-06T00:32:54.645Z,93.80
2017-10-06T00:35:22.116Z,93.90
2017-10-06T00:37:49.581Z,93.80
2017-10-06T00:40:17.323Z,93.90
2017-10-06T00:42:44.830Z,93.80
2017-10-06T00:45:12.645Z,93.90
2017-10-06T00:47:40.194Z,94.00
2017-10-06T00:50:07.643Z,93.90
2017-10-06T00:52:35.148Z,94.00
2017-10-06T00:55:02.860Z,93.90
2017-10-06T00:57:30.320Z,94.00
2017-10-06T00:59:58.563Z,94.20
2017-10-06T01:02:26.116Z,94.10
2017-10-06T01:04:53.570Z,94.20
2017-10-06T01:07:21.096Z,94.20
2017-10-06T01:09:48.819Z,94.20
2017-10-06T01:12:17.105Z,94.40
2017-10-06T01:14:44.582Z,94.30
2017-10-06T01:17:12.115Z,94.50
2017-10-06T01:19:40.394Z,94.50
2017-10-06T01:22:08.715Z,94.50
2017-10-06T01:24:36.624Z,94.50
2017-10-06T01:27:05.467Z,94.80
2017-10-06T01:29:33.039Z,94.50
2017-10-06T01:32:01.745Z,94.50
2017-10-06T01:34:29.226Z,94.60
2017-10-06T01:36:57.442Z,94.50
2017-10-06T01:39:24.997Z,94.50
2017-10-06T01:41:52.459Z,94.60
2017-10-06T01:44:19.977Z,94.40
2017-10-06T01:46:47.522Z,94.40
2017-10-06T01:49:15.807Z,94.60
2017-10-06T01:51:44.089Z,94.50
2017-10-06T01:54:12.597Z,94.60
2017-10-06T01:56:40.095Z,94.60
2017-10-06T01:59:07.640Z,94.60
2017-10-06T02:01:35.171Z,94.60
2017-10-06T02:04:02.654Z,94.70
2017-10-06T02:06:30.113Z,94.70
2017-10-06T02:08:57.785Z,94.70
2017-10-06T02:11:25.259Z,94.70
2017-10-06T02:13:52.742Z,94.90
2017-10-06T02:16:20.415Z,94.70
2017-10-06T02:18:47.861Z,94.50
2017-10-06T02:21:15.345Z,94.40
2017-10-06T02:23:42.826Z,94.40
2017-10-06T02:26:10.374Z,94.40
2017-10-06T02:28:37.848Z,94.70
2017-10-06T02:31:05.553Z,94.60
2017-10-06T02:33:33.046Z,94.60
2017-10-06T02:36:00.523Z,94.40
2017-10-06T02:38:28.205Z,94.30
2017-10-06T02:40:55.712Z,94.10
2017-10-06T02:43:23.237Z,94.00
2017-10-06T02:45:51.845Z,93.90
2017-10-06T02:48:19.346Z,93.90
2017-10-06T02:50:47.647Z,94.00
2017-10-06T02:53:16.117Z,93.90
2017-10-06T02:55:43.602Z,93.90
2017-10-06T02:58:11.137Z,94.00
2017-10-06T03:00:39.668Z,93.80
2017-10-06T03:03:08.054Z,93.80
2017-10-06T03:05:35.577Z,93.70
2017-10-06T03:08:03.481Z,93.70
2017-10-06T03:10:30.961Z,93.70
2017-10-06T03:12:58.501Z,93.70
2017-10-06T03:15:26.054Z,93.80
2017-10-06T03:17:53.558Z,93.70
2017-10-06T03:20:21.015Z,93.70
2017-10-06T03:22:49.491Z,93.80
2017-10-06T03:25:17.052Z,93.80
2017-10-06T03:27:44.506Z,93.70
2017-10-06T03:30:11.982Z,93.50
2017-10-06T03:32:40.761Z,93.70
2017-10-06T03:35:09.087Z,93.60
2017-10-06T03:37:37.853Z,93.60
2017-10-06T03:40:05.313Z,93.80
2017-10-06T03:42:32.794Z,93.80
2017-10-06T03:45:00.287Z,93.90
2017-10-06T03:47:27.935Z,93.80
2017-10-06T03:49:56.241Z,93.50
2017-10-06T03:52:24.504Z,93.50
2017-10-06T03:54:51.982Z,93.50
2017-10-06T03:57:20.266Z,93.50
2017-10-06T03:59:48.928Z,93.40
2017-10-06T04:02:16.407Z,93.40
2017-10-06T04:04:44.807Z,93.40
2017-10-06T04:07:12.538Z,93.40
2017-10-06T04:09:40.774Z,93.20
2017-10-06T04:12:08.259Z,93.20
2017-10-06T04:14:35.957Z,93.20
2017-10-06T04:17:04.177Z,93.10
2017-10-06T04:19:31.650Z,93.10
2017-10-06T04:22:00.274Z,93.00
2017-10-06T04:24:27.779Z,93.00
2017-10-06T04:26:55.259Z,93.10
2017-10-06T04:29:23.851Z,93.00
2017-10-06T04:31:52.085Z,92.90
2017-10-06T04:34:19.986Z,92.80
2017-10-06T04:36:48.589Z,93.10
2017-10-06T04:39:16.083Z,92.80
2017-10-06T04:41:43.590Z,92.80
2017-10-06T04:44:12.329Z,92.60
2017-10-06T04:46:39.844Z,92.80
2017-10-06T04:49:08.103Z,92.90
2017-10-06T04:51:35.836Z,92.80
2017-10-06T04:54:03.372Z,92.80
2017-10-06T04:56:30.845Z,92.70
2017-10-06T04:58:58.700Z,92.80
2017-10-06T05:01:26.249Z,93.00
2017-10-06T05:03:53.746Z,93.10
2017-10-06T05:06:22.911Z,93.70
2017-10-06T05:08:50.867Z,93.70
2017-10-06T05:11:18.383Z,94.10
2017-10-06T05:13:47.048Z,94.60
2017-10-06T05:16:14.516Z,94.50
2017-10-06T05:18:42.014Z,94.80
2017-10-06T05:21:10.093Z,95.00
2017-10-06T05:23:37.867Z,95.20
2017-10-06T05:26:05.318Z,95.40
2017-10-06T05:28:32.822Z,95.40
2017-10-06T05:31:00.307Z,95.60
2017-10-06T05:33:28.517Z,96.00
2017-10-06T05:35:56.223Z,96.00
2017-10-06T05:38:23.724Z,95.90
2017-10-06T05:40:51.254Z,96.10
2017-10-06T05:43:19.562Z,96.30
2017-10-06T05:45:47.036Z,96.20
2017-10-06T05:48:14.501Z,96.10
2017-10-06T05:50:42.250Z,96.20
2017-10-06T05:53:09.742Z,96.20
2017-10-06T05:55:37.218Z,96.20
2017-10-06T05:58:05.001Z,96.00
2017-10-06T06:00:33.266Z,96.00
2017-10-06T06:03:01.675Z,96.10
2017-10-06T06:05:29.365Z,96.00
2017-10-06T06:07:56.853Z,95.90
2017-10-06T06:10:31.689Z,95.90
2017-10-06T06:12:59.925Z,95.70
2017-10-06T06:15:27.488Z,95.60
2017-10-06T06:17:55.087Z,95.60
2017-10-06T06:20:23.357Z,95.70
2017-10-06T06:22:51.644Z,95.40
2017-10-06T06:25:19.899Z,95.30
2017-10-06T06:27:47.615Z,95.30
2017-10-06T06:30:15.215Z,95.60
2017-10-06T06:32:43.487Z,95.80
2017-10-06T06:35:11.119Z,95.80
2017-10-06T06:37:38.589Z,95.90
2017-10-06T06:40:06.080Z,95.90
2017-10-06T06:42:34.429Z,95.90
2017-10-06T06:45:01.913Z,95.50
2017-10-06T06:47:29.866Z,95.70
2017-10-06T06:49:57.378Z,95.70
2017-10-06T06:52:24.850Z,95.50
2017-10-06T06:54:52.325Z,95.50
2017-10-06T06:57:19.958Z,95.40
2017-10-06T06:59:47.561Z,95.20
2017-10-06T07:02:15.020Z,94.70
2017-10-06T07:04:42.698Z,94.50
2017-10-06T07:07:10.154Z,94.10
2017-10-06T07:09:39.161Z,94.00
2017-10-06T07:12:07.647Z,93.60
2017-10-06T07:14:35.903Z,93.50
2017-10-06T07:17:03.444Z,93.50
2017-10-06T07:19:31.239Z,93.20
2017-10-06T07:21:59.493Z,93.30
2017-10-06T07:24:26.961Z,93.30
2017-10-06T07:26:55.428Z,93.50
2017-10-06T07:29:22.900Z,93.40
2017-10-06T07:31:51.161Z,92.80
2017-10-06T07:34:18.649Z,92.80
2017-10-06T07:36:46.876Z,92.70
2017-10-06T07:39:14.338Z,92.70
2017-10-06T07:41:41.904Z,92.60
2017-10-06T07:44:09.460Z,92.70
2017-10-06T07:46:36.929Z,92.90
2017-10-06T07:49:04.597Z,92.90
2017-10-06T07:51:32.865Z,92.90
2017-10-06T07:54:00.344Z,92.90
2017-10-06T07:56:28.618Z,93.10
2017-10-06T07:58:56.865Z,93.30
2017-10-06T08:01:24.419Z,93.30
2017-10-06T08:03:52.106Z,93.50
2017-10-06T08:06:19.580Z,93.20
2017-10-06T08:08:47.814Z,92.80
2017-10-06T08:11:15.341Z,92.70
2017-10-06T08:13:42.831Z,92.70
2017-10-06T08:16:10.305Z,92.90
2017-10-06T08:18:38.230Z,92.80
2017-10-06T08:21:06.025Z,93.50
2017-10-06T08:23:34.288Z,93.20
2017-10-06T08:26:01.999Z,93.20
2017-10-06T08:28:29.557Z,93.10
2017-10-06T08:30:57.166Z,93.00
2017-10-06T08:33:24.690Z,92.90
2017-10-06T08:35:52.946Z,91.80
2017-10-06T08:38:20.440Z,91.80
2017-10-06T08:40:47.920Z,90.90
2017-10-06T08:43:15.431Z,90.60
2017-10-06T08:45:43.968Z,90.60
2017-10-06T08:48:11.441Z,90.60
2017-10-06T08:50:38.920Z,90.10
2017-10-06T08:53:07.389Z,90.10
2017-10-06T08:55:35.643Z,90.10
2017-10-06T08:58:03.136Z,90.10
2017-10-06T09:00:31.815Z,90.50
2017-10-06T09:03:00.064Z,90.40
2017-10-06T09:05:27.547Z,90.40
2017-10-06T09:07:55.857Z,89.60
2017-10-06T09:10:23.351Z,89.50
2017-10-06T09:12:50.799Z,88.80
2017-10-06T09:15:18.394Z,90.00
2017-10-06T09:17:47.368Z,89.60
2017-10-06T09:20:15.639Z,89.30
2017-10-06T09:22:43.185Z,90.00
2017-10-06T09:25:10.714Z,89.60
2017-10-06T09:27:38.202Z,89.60
2017-10-06T09:30:05.727Z,88.80
2017-10-06T09:32:33.216Z,88.00
2017-10-06T09:35:00.673Z,87.90
2017-10-06T09:37:28.398Z,89.20
2017-10-06T09:39:55.878Z,90.10
2017-10-06T09:42:23.853Z,90.00
2017-10-06T09:44:51.527Z,90.30
2017-10-06T09:47:19.082Z,90.00
2017-10-06T09:49:46.668Z,90.20
2017-10-06T09:52:15.182Z,90.40
2017-10-06T09:54:42.664Z,90.40
2017-10-06T09:57:10.168Z,91.20
2017-10-06T09:59:37.670Z,91.20
2017-10-06T10:02:05.534Z,91.70
2017-10-06T10:04:33.026Z,91.90
2017-10-06T10:07:00.743Z,92.00
2017-10-06T10:09:28.317Z,92.00
2017-10-06T10:11:55.804Z,91.90
2017-10-06T10:14:23.988Z,91.60
2017-10-06T10:16:51.500Z,92.20
2017-10-06T10:19:20.008Z,92.80
2017-10-06T10:21:47.678Z,93.30
2017-10-06T10:24:15.193Z,93.20
2017-10-06T10:26:42.663Z,93.60
2017-10-06T10:29:10.407Z,93.70
2017-10-06T10:31:39.155Z,94.20
2017-10-06T10:34:06.651Z,94.20
2017-10-06T10:36:34.319Z,94.50
2017-10-06T10:39:02.447Z,94.30
2017-10-06T10:41:29.936Z,94.80
2017-10-06T10:43:58.217Z,94.50
2017-10-06T10:46:26.447Z,94.50
2017-10-06T10:48:54.676Z,95.00
2017-10-06T10:51:22.205Z,94.60
2017-10-06T10:53:50.174Z,94.40
2017-10-06T10:56:17.668Z,93.80
2017-10-06T10:58:45.197Z,94.00
2017-10-06T11:01:13.655Z,94.00
2017-10-06T11:03:41.155Z,93.70
2017-10-06T11:06:09.383Z,94.10
2017-10-06T11:08:37.002Z,94.10
2017-10-06T11:11:04.651Z,94.10
2017-10-06T11:13:32.139Z,93.80
2017-10-06T11:15:59.691Z,94.20
2017-10-06T11:18:27.202Z,93.90
2017-10-06T11:20:54.725Z,93.90
2017-10-06T11:23:22.251Z,93.40
2017-10-06T11:25:49.997Z,93.40
2017-10-06T11:28:18.280Z,92.80
2017-10-06T11:30:47.192Z,92.20
2017-10-06T11:33:14.730Z,92.20
2017-10-06T11:35:42.224Z,91.70
2017-10-06T11:38:09.743Z,91.70
2017-10-06T11:40:39.616Z,90.10
2017-10-06T11:43:07.159Z,90.10
2017-10-06T11:45:34.635Z,90.90
2017-10-06T11:48:02.380Z,91.50
2017-10-06T11:50:29.868Z,91.70
2017-10-06T11:52:57.333Z,92.30
2017-10-06T11:55:24.961Z,92.30
2017-10-06T11:57:52.538Z,93.20
2017-10-06T12:00:20.031Z,93.10
2017-10-06T12:02:48.497Z,92.70
2017-10-06T12:05:16.756Z,92.80
2017-10-06T12:07:44.550Z,92.50
2017-10-06T12:10:13.019Z,91.80
2017-10-06T12:12:41.434Z,91.10
2017-10-06T12:15:08.994Z,91.10
2017-10-06T12:17:36.515Z,91.40
2017-10-06T12:20:04.814Z,92.30
2017-10-06T12:22:32.308Z,92.20
2017-10-06T12:25:00.145Z,92.50
2017-10-06T12:27:27.670Z,92.40
2017-10-06T12:29:55.136Z,92.80
2017-10-06T12:32:24.015Z,91.80
2017-10-06T12:34:51.531Z,91.80
2017-10-06T12:37:18.996Z,92.40
2017-10-06T12:39:46.534Z,92.10
2017-10-06T12:42:14.104Z,92.00
2017-10-06T12:44:41.586Z,92.00
2017-10-06T12:47:09.243Z,92.40
2017-10-06T12:49:36.713Z,92.80
2017-10-06T12:52:04.947Z,93.50
2017-10-06T12:54:32.656Z,93.50
2017-10-06T12:57:00.148Z,93.50
2017-10-06T12:59:27.635Z,93.40
2017-10-06T13:01:55.227Z,93.10
2017-10-06T13:04:22.730Z,92.90
2017-10-06T13:06:50.236Z,92.00
2017-10-06T13:09:17.764Z,92.30
2017-10-06T13:11:45.261Z,91.60
2017-10-06T13:14:13.444Z,91.50
2017-10-06T13:16:40.952Z,91.10
2017-10-06T13:19:08.451Z,90.70
2017-10-06T13:21:36.148Z,90.90
2017-10-06T13:24:04.487Z,91.50
2017-10-06T13:26:32.428Z,91.50
2017-10-06T13:28:59.931Z,91.90
2017-10-06T13:31:28.342Z,92.80
2017-10-06T13:33:55.887Z,92.80
2017-10-06T13:36:23.367Z,92.70
2017-10-06T13:38:51.226Z,93.00
2017-10-06T13:41:18.692Z,92.90
2017-10-06T13:43:47.086Z,93.10
2017-10-06T13:46:14.580Z,92.40
2017-10-06T13:48:42.869Z,92.60
2017-10-06T13:51:11.147Z,91.80
2017-10-06T13:53:39.433Z,91.50
2017-10-06T13:56:09.764Z,91.50
2017-10-06T13:58:37.210Z,92.20
2017-10-06T14:01:04.916Z,92.20
2017-10-06T14:03:32.743Z,92.20
2017-10-06T14:06:01.082Z,92.80
2017-10-06T14:08:29.402Z,93.30
2017-10-06T14:10:57.056Z,93.20
2017-10-06T14:13:24.557Z,93.70
2017-10-06T14:15:52.051Z,94.20
2017-10-06T14:18:20.507Z,95.20
2017-10-06T14:20:47.978Z,94.90
2017-10-06T14:23:15.478Z,95.00
2017-10-06T14:25:43.098Z,95.10
2017-10-06T14:28:11.525Z,94.90
2017-10-06T14:30:39.063Z,94.80
2017-10-06T14:33:07.643Z,95.10
2017-10-06T14:35:35.910Z,95.00
2017-10-06T14:38:04.708Z,94.80
2017-10-06T14:40:33.265Z,94.70
2017-10-06T14:43:00.842Z,94.70
2017-10-06T14:45:28.361Z,94.40
2017-10-06T14:47:55.911Z,94.40
2017-10-06T14:50:23.618Z,94.00
2017-10-06T14:52:51.904Z,92.80
2017-10-06T14:55:20.136Z,92.80
2017-10-06T14:57:47.887Z,92.80
2017-10-06T15:00:15.371Z,92.50
2017-10-06T15:02:42.860Z,92.80
2017-10-06T15:05:11.552Z,93.40
2017-10-06T15:07:39.379Z,93.40
2017-10-06T15:10:07.040Z,93.20
2017-10-06T15:12:34.894Z,93.10
2017-10-06T15:15:02.359Z,93.20
2017-10-06T15:17:30.001Z,93.20
2017-10-06T15:19:57.705Z,93.30
2017-10-06T15:22:25.992Z,93.40
2017-10-06T15:24:54.701Z,93.50
2017-10-06T15:27:22.602Z,93.40
2017-10-06T15:29:50.482Z,93.30
2017-10-06T15:32:17.974Z,93.20
2017-10-06T15:34:46.549Z,92.80
2017-10-06T15:37:14.823Z,92.80
2017-10-06T15:39:43.057Z,93.10
2017-10-06T15:42:10.650Z,92.80
2017-10-06T15:44:38.896Z,91.80
2017-10-06T15:47:07.640Z,91.80
2017-10-06T15:49:35.178Z,92.00
2017-10-06T15:52:03.435Z,91.30
2017-10-06T15:54:30.978Z,91.30
2017-10-06T15:56:58.853Z,91.40
2017-10-06T15:59:26.426Z,90.90
2017-10-06T16:01:53.934Z,90.40
2017-10-06T16:04:21.430Z,90.40
2017-10-06T16:06:48.912Z,90.40
2017-10-06T16:09:17.612Z,90.00
2017-10-06T16:11:45.142Z,90.00
2017-10-06T16:14:12.733Z,90.00
2017-10-06T16:16:40.497Z,90.30
2017-10-06T16:19:08.764Z,90.60
2017-10-06T16:21:37.126Z,91.20
2017-10-06T16:24:04.676Z,91.20
2017-10-06T16:26:32.230Z,91.30
2017-10-06T16:29:00.165Z,91.30
2017-10-06T16:31:27.673Z,91.50
2017-10-06T16:33:55.970Z,91.90
2017-10-06T16:36:24.256Z,91.90
2017-10-06T16:38:51.796Z,91.90
2017-10-06T16:41:20.058Z,91.90
2017-10-06T16:43:48.555Z,92.00
2017-10-06T16:46:17.317Z,92.60
2017-10-06T16:48:44.957Z,92.50
2017-10-06T16:51:12.462Z,92.60
2017-10-06T16:53:40.664Z,92.70
2017-10-06T16:56:08.492Z,92.90
2017-10-06T16:58:36.946Z,93.30
2017-10-06T17:01:04.426Z,93.30
2017-10-06T17:03:33.518Z,93.50
2017-10-06T17:06:01.142Z,93.50
2017-10-06T17:08:28.730Z,93.80
2017-10-06T17:10:56.988Z,94.10
2017-10-06T17:13:24.784Z,94.10
2017-10-06T17:15:52.257Z,94.20
2017-10-06T17:18:19.740Z,94.10
2017-10-06T17:20:47.274Z,94.30
2017-10-06T17:23:15.731Z,94.30
2017-10-06T17:25:44.036Z,94.40
2017-10-06T17:28:12.505Z,94.60
2017-10-06T17:30:40.771Z,94.60
2017-10-06T17:33:08.805Z,94.60
2017-10-06T17:35:36.517Z,94.60
2017-10-06T17:38:04.846Z,94.60
2017-10-06T17:40:32.327Z,94.60
2017-10-06T17:42:59.826Z,94.70
2017-10-06T17:45:27.302Z,94.60
2017-10-06T17:47:54.826Z,94.40
2017-10-06T17:50:23.086Z,94.50
2017-10-06T17:52:51.404Z,94.40
2017-10-06T17:55:19.279Z,94.40
2017-10-06T17:57:46.823Z,94.40
2017-10-06T18:00:14.321Z,94.30
2017-10-06T18:02:41.948Z,94.20
2017-10-06T18:05:09.469Z,94.20
2017-10-06T18:07:37.810Z,94.40
2017-10-06T18:10:05.300Z,94.40
2017-10-06T18:12:33.562Z,94.70
2017-10-06T18:15:01.098Z,94.70
2017-10-06T18:17:28.850Z,94.80
2017-10-06T18:19:56.513Z,95.00
2017-10-06T18:22:24.137Z,95.00
2017-10-06T18:24:52.403Z,95.10
2017-10-06T18:27:20.728Z,95.10
2017-10-06T18:29:48.448Z,95.10
2017-10-06T18:32:16.687Z,95.40
2017-10-06T18:34:44.171Z,95.40
2017-10-06T18:37:12.694Z,95.70
2017-10-06T18:39:40.184Z,95.60
2017-10-06T18:42:07.662Z,95.60
2017-10-06T18:44:35.600Z,95.60
2017-10-06T18:47:03.087Z,95.60
2017-10-06T18:49:31.341Z,95.80
2017-10-06T18:51:59.702Z,95.40
2017-10-06T18:54:27.241Z,95.50
2017-10-06T18:56:54.786Z,95.20
2017-10-06T18:59:22.622Z,95.20
2017-10-06T19:01:50.134Z,95.10
2017-10-06T19:04:17.608Z,95.10
2017-10-06T19:06:45.227Z,95.20
2017-10-06T19:09:13.488Z,96.00
2017-10-06T19:11:41.836Z,96.20
2017-10-06T19:14:09.416Z,96.20
2017-10-06T19:16:37.759Z,96.20
2017-10-06T19:19:05.229Z,96.20
2017-10-06T19:21:32.938Z,96.10
2017-10-06T19:24:00.685Z,96.00
2017-10-06T19:26:28.196Z,95.90
2017-10-06T19:28:55.696Z,95.90
2017-10-06T19:31:23.968Z,96.10
2017-10-06T19:33:51.468Z,96.10
2017-10-06T19:36:19.113Z,95.90
2017-10-06T19:38:47.348Z,96.10
2017-10-06T19:41:14.826Z,96.10
2017-10-06T19:43:43.318Z,96.20
2017-10-06T19:46:11.589Z,96.10
2017-10-06T19:48:39.912Z,96.10
2017-10-06T19:51:07.543Z,96.10
2017-10-06T19:53:35.029Z,96.20
2017-10-06T19:56:02.816Z,96.20
2017-10-06T19:58:30.506Z,96.10
2017-10-06T20:00:58.010Z,95.90
2017-10-06T20:03:25.527Z,95.30
2017-10-06T20:05:54.507Z,95.00
2017-10-06T20:08:22.866Z,94.80
2017-10-06T20:10:50.366Z,94.70
2017-10-06T20:13:18.026Z,94.60
2017-10-06T20:15:45.564Z,94.60
2017-10-06T20:18:13.055Z,94.60
2017-10-06T20:20:40.554Z,94.50
2017-10-06T20:23:08.039Z,94.60
2017-10-06T20:25:36.326Z,94.70
2017-10-06T20:28:04.595Z,94.70
2017-10-06T20:30:32.855Z,94.80
2017-10-06T20:33:00.359Z,94.80
2017-10-06T20:35:27.871Z,94.70
2017-10-06T20:37:55.387Z,94.40
2017-10-06T20:40:22.951Z,94.70
2017-10-06T20:42:50.692Z,94.40
2017-10-06T20:45:18.192Z,94.70
2017-10-06T20:47:45.659Z,94.80
2017-10-06T20:50:13.650Z,94.60
2017-10-06T20:52:42.033Z,94.60
2017-10-06T20:55:10.277Z,94.70
2017-10-06T20:57:38.075Z,94.70
2017-10-06T21:00:06.675Z,94.80
2017-10-06T21:02:34.370Z,94.70
2017-10-06T21:05:02.113Z,95.00
2017-10-06T21:07:29.608Z,95.00
2017-10-06T21:09:57.098Z,95.10
2017-10-06T21:12:25.356Z,96.00
2017-10-06T21:14:52.835Z,96.00
2017-10-06T21:17:21.143Z,96.40
2017-10-06T21:19:48.858Z,96.40
2017-10-06T21:22:17.107Z,96.40
2017-10-06T21:24:44.568Z,96.40
2017-10-06T21:27:12.151Z,96.50
2017-10-06T21:29:40.488Z,96.50
2017-10-06T21:32:07.962Z,96.50
2017-10-06T21:34:35.445Z,96.50
2017-10-06T21:37:03.735Z,96.60
2017-10-06T21:39:32.000Z,95.60
2017-10-06T21:42:00.484Z,95.50
2017-10-06T21:44:28.740Z,95.50
2017-10-06T21:46:56.223Z,95.40
2017-10-06T21:49:24.919Z,95.20
2017-10-06T21:51:53.142Z,95.20
2017-10-06T21:54:20.615Z,95.20
2017-10-06T21:56:48.508Z,95.10
2017-10-06T21:59:16.790Z,95.00
2017-10-06T22:01:45.845Z,95.00
2017-10-06T22:04:13.503Z,95.00
2017-10-06T22:06:41.006Z,94.90
2017-10-06T22:09:09.271Z,94.90
2017-10-06T22:11:37.857Z,94.90
2017-10-06T22:14:06.083Z,94.70
2017-10-06T22:16:33.547Z,94.70
2017-10-06T22:19:01.247Z,94.60
2017-10-06T22:21:29.490Z,94.70
2017-10-06T22:23:57.666Z,94.60
2017-10-06T22:26:25.367Z,94.50
2017-10-06T22:28:53.609Z,94.50
2017-10-06T22:31:21.095Z,94.50
2017-10-06T22:33:49.674Z,94.60
2017-10-06T22:36:17.927Z,94.60
2017-10-06T22:38:46.964Z,94.50
2017-10-06T22:41:14.628Z,94.50
2017-10-06T22:43:42.088Z,94.50
2017-10-06T22:46:09.568Z,94.30
2017-10-06T22:48:37.230Z,94.40
2017-10-06T22:51:04.724Z,94.50
2017-10-06T22:53:32.244Z,94.50
2017-10-06T22:55:59.733Z,94.60
2017-10-06T22:58:27.238Z,94.50
2017-10-06T23:00:54.712Z,94.60
2017-10-06T23:03:22.466Z,94.70
2017-10-06T23:05:49.973Z,94.80
2017-10-06T23:08:17.478Z,94.70
2017-10-06T23:10:45.029Z,94.80
2017-10-06T23:13:12.544Z,94.80
2017-10-06T23:15:40.014Z,94.80
2017-10-06T23:18:08.542Z,94.90
2017-10-06T23:20:36.825Z,94.90
2017-10-06T23:23:04.297Z,94.90
2017-10-06T23:25:33.339Z,94.80
2017-10-06T23:28:00.827Z,94.80
2017-10-06T23:30:28.364Z,95.00
2017-10-06T23:32:56.138Z,95.20
2017-10-06T23:35:23.665Z,95.10
2017-10-06T23:37:51.111Z,95.30
2017-10-06T23:40:18.616Z,95.50
2017-10-06T23:42:46.148Z,95.50
2017-10-06T23:45:14.406Z,95.60
2017-10-06T23:47:42.093Z,95.60
2017-10-06T23:50:09.903Z,95.70
2017-10-06T23:52:37.695Z,95.40
2017-10-06T23:55:05.972Z,95.40
2017-10-06T23:57:33.446Z,95.40
